Time;durP1;ratioP1;P1;durP2;ratioP2;P2;SDS_P1;SDS_P2;PMS_P1;PMS_P2;Temp;Humidity;BMP_temperature;BMP_pressure;BME280_temperature;BME280_humidity;BME280_pressure;Samples;Min_cycle;Max_cycle;Signal;HPM_P1;HPM_P2
2023/11/19 00:01:43;;;;;;;;;;;13.70;99.90;;;;;;8389815;28;20391;-71
2023/11/19 00:05:45;;;;;;;;;;;13.70;99.90;;;;;;8402271;28;20394;-72
2023/11/19 00:09:46;;;;;;;;;;;13.70;99.90;;;;;;8389912;28;19928;-71
2023/11/19 00:13:48;;;;;;;;;;;13.70;99.90;;;;;;8373911;28;19964;-71
2023/11/19 00:17:50;;;;;;;;;;;13.80;99.90;;;;;;8389125;28;20543;-72
2023/11/19 00:21:52;;;;;;;;;;;13.80;99.90;;;;;;8390014;28;20359;-72
2023/11/19 00:25:54;;;;;;;;;;;13.80;99.90;;;;;;8377975;28;19978;-71
2023/11/19 00:29:56;;;;;;;;;;;13.80;99.90;;;;;;8403335;28;19924;-72
2023/11/19 00:33:58;;;;;;;;;;;13.80;99.90;;;;;;8391170;28;19925;-72
2023/11/19 00:38:00;;;;;;;;;;;13.80;99.90;;;;;;8404965;28;20347;-72
2023/11/19 00:42:02;;;;;;;;;;;13.80;99.90;;;;;;8381620;28;19959;-72
2023/11/19 00:46:07;;;;;;;;;;;13.80;99.90;;;;;;8381562;28;20373;-71
2023/11/19 00:50:12;;;;;;;;;;;13.80;99.90;;;;;;8395810;28;20413;-72
2023/11/19 00:54:14;;;;;;;;;;;13.80;99.90;;;;;;8380960;28;20058;-72
2023/11/19 00:58:17;;;;;;;;;;;13.80;99.90;;;;;;8390179;28;19924;-72
2023/11/19 01:02:19;;;;;;;;;;;13.90;99.90;;;;;;8401909;28;19924;-72
2023/11/19 01:06:30;;;;;;;;;;;13.80;99.90;;;;;;8401620;28;19931;-72
2023/11/19 01:10:32;;;;;;;;;;;13.80;99.90;;;;;;8371790;28;20416;-72
2023/11/19 01:14:34;;;;;;;;;;;13.80;99.90;;;;;;8387379;28;19925;-72
2023/11/19 01:18:36;;;;;;;;;;;13.90;99.90;;;;;;8392842;28;20398;-72
2023/11/19 01:22:37;;;;;;;;;;;13.90;99.90;;;;;;8378728;28;19929;-72
2023/11/19 01:26:39;;;;;;;;;;;13.90;99.90;;;;;;8377262;28;19928;-72
2023/11/19 01:30:41;;;;;;;;;;;13.90;99.90;;;;;;8385624;28;19979;-72
2023/11/19 01:34:42;;;;;;;;;;;13.90;99.90;;;;;;8403460;28;19925;-72
2023/11/19 01:38:44;;;;;;;;;;;13.90;99.90;;;;;;8402254;28;19938;-72
2023/11/19 01:42:46;;;;;;;;;;;13.80;99.90;;;;;;8401239;28;20010;-72
2023/11/19 01:46:48;;;;;;;;;;;13.80;99.90;;;;;;8398085;28;19933;-72
2023/11/19 01:50:52;;;;;;;;;;;13.80;99.90;;;;;;8373939;28;19931;-72
2023/11/19 01:55:03;;;;;;;;;;;13.80;99.90;;;;;;8389861;28;19931;-72
2023/11/19 01:59:05;;;;;;;;;;;13.70;99.90;;;;;;8388146;28;19928;-72
2023/11/19 02:03:08;;;;;;;;;;;13.70;99.90;;;;;;8384441;28;19929;-72
2023/11/19 02:07:10;;;;;;;;;;;13.60;99.90;;;;;;8391981;28;19925;-72
2023/11/19 02:11:12;;;;;;;;;;;13.50;99.90;;;;;;8369032;28;19928;-72
2023/11/19 02:20:19;;;;;;;;;;;13.40;99.90;;;;;;8379956;28;19962;-72
2023/11/19 02:24:22;;;;;;;;;;;13.30;99.90;;;;;;8393269;28;20098;-72
2023/11/19 02:28:24;;;;;;;;;;;13.20;99.90;;;;;;8387340;28;19925;-72
2023/11/19 02:32:27;;;;;;;;;;;13.20;99.90;;;;;;8390651;28;19963;-72
2023/11/19 02:41:32;;;;;;;;;;;13.10;99.90;;;;;;8392029;28;19923;-72
2023/11/19 02:45:34;;;;;;;;;;;13.00;99.90;;;;;;8398518;28;19977;-71
2023/11/19 02:49:37;;;;;;;;;;;13.00;99.90;;;;;;8369240;28;19950;-72
2023/11/19 02:53:39;;;;;;;;;;;12.90;99.90;;;;;;8377309;28;19924;-72
2023/11/19 02:57:48;;;;;;;;;;;12.80;99.90;;;;;;8395090;28;19951;-72
2023/11/19 03:17:06;;;;;;;;;;;12.70;99.90;;;;;;8367647;28;19919;-72
2023/11/19 03:21:08;;;;;;;;;;;12.60;99.90;;;;;;8390186;28;19982;-72
2023/11/19 03:25:10;;;;;;;;;;;12.60;99.90;;;;;;8394451;28;19940;-72
2023/11/19 03:29:12;;;;;;;;;;;12.60;99.90;;;;;;8387282;28;19928;-72
2023/11/19 03:33:14;;;;;;;;;;;12.50;99.90;;;;;;8390543;28;19928;-72
2023/11/19 03:37:17;;;;;;;;;;;12.50;99.90;;;;;;8398709;28;19925;-72
2023/11/19 03:41:19;;;;;;;;;;;12.50;99.90;;;;;;8372270;28;20016;-72
2023/11/19 03:45:21;;;;;;;;;;;12.40;99.90;;;;;;8372326;28;19925;-72
2023/11/19 03:49:24;;;;;;;;;;;12.40;99.90;;;;;;8390416;28;20372;-72
2023/11/19 03:53:25;;;;;;;;;;;12.30;99.90;;;;;;8397196;28;19928;-72
2023/11/19 03:57:27;;;;;;;;;;;12.30;99.90;;;;;;8395899;28;19924;-72
2023/11/19 04:01:29;;;;;;;;;;;12.30;99.90;;;;;;8391725;28;19928;-72
2023/11/19 04:05:31;;;;;;;;;;;12.20;99.90;;;;;;8383259;28;19925;-72
2023/11/19 04:09:32;;;;;;;;;;;12.20;99.90;;;;;;8402504;28;19932;-72
2023/11/19 04:23:41;;;;;;;;;;;12.10;99.90;;;;;;8348364;28;20473;-71
2023/11/19 04:27:43;;;;;;;;;;;12.10;99.90;;;;;;8373840;28;20287;-71
2023/11/19 04:31:45;;;;;;;;;;;12.00;99.90;;;;;;8395778;28;19986;-71
2023/11/19 04:35:47;;;;;;;;;;;12.00;99.90;;;;;;8351032;28;20438;-71
2023/11/19 04:39:48;;;;;;;;;;;12.00;99.90;;;;;;8383410;28;19971;-71
2023/11/19 04:43:50;;;;;;;;;;;12.00;99.90;;;;;;8384189;28;19931;-71
2023/11/19 04:47:52;;;;;;;;;;;11.90;99.90;;;;;;8404763;28;19928;-71
2023/11/19 05:02:01;;;;;;;;;;;11.90;99.90;;;;;;8387455;28;19923;-71
2023/11/19 05:06:03;;;;;;;;;;;11.90;99.90;;;;;;8367555;28;20102;-71
2023/11/19 05:10:05;;;;;;;;;;;11.80;99.90;;;;;;8371305;28;20306;-71
2023/11/19 05:14:09;;;;;;;;;;;11.80;99.90;;;;;;8401608;28;19925;-71
2023/11/19 05:18:10;;;;;;;;;;;11.80;99.90;;;;;;8370163;28;19925;-71
2023/11/19 05:22:12;;;;;;;;;;;11.80;99.90;;;;;;8382050;28;19924;-71
2023/11/19 05:26:18;;;;;;;;;;;11.80;99.90;;;;;;8375634;28;20023;-71
2023/11/19 05:30:20;;;;;;;;;;;11.80;99.90;;;;;;8381737;28;19955;-71
2023/11/19 05:34:21;;;;;;;;;;;11.80;99.90;;;;;;8394479;28;19924;-71
2023/11/19 05:38:23;;;;;;;;;;;11.80;99.90;;;;;;8382597;28;20456;-71
2023/11/19 05:42:25;;;;;;;;;;;11.70;99.90;;;;;;8378142;28;19929;-71
2023/11/19 05:46:27;;;;;;;;;;;11.80;99.90;;;;;;8400065;28;19924;-70
2023/11/19 05:50:29;;;;;;;;;;;11.80;99.90;;;;;;8391914;28;19924;-71
2023/11/19 05:54:31;;;;;;;;;;;11.70;99.90;;;;;;8398124;28;19924;-70
2023/11/19 05:58:33;;;;;;;;;;;11.70;99.90;;;;;;8390030;28;19925;-71
2023/11/19 06:02:34;;;;;;;;;;;11.70;99.90;;;;;;8369461;28;19979;-71
2023/11/19 06:06:36;;;;;;;;;;;11.70;99.90;;;;;;8362364;28;19928;-71
2023/11/19 06:10:38;;;;;;;;;;;11.70;99.90;;;;;;8368754;28;19932;-71
2023/11/19 06:14:40;;;;;;;;;;;11.70;99.90;;;;;;8392930;28;19932;-70
2023/11/19 06:18:43;;;;;;;;;;;11.60;99.90;;;;;;8365148;28;19925;-71
2023/11/19 06:22:45;;;;;;;;;;;11.70;99.90;;;;;;8383662;28;19984;-71
2023/11/19 06:26:47;;;;;;;;;;;11.70;99.90;;;;;;8393602;28;19936;-71
2023/11/19 06:30:49;;;;;;;;;;;11.60;99.90;;;;;;8394522;28;19924;-71
2023/11/19 06:34:51;;;;;;;;;;;11.60;99.90;;;;;;8392614;28;20001;-71
2023/11/19 06:38:52;;;;;;;;;;;11.60;99.90;;;;;;8394091;28;20367;-71
2023/11/19 06:42:54;;;;;;;;;;;11.60;99.90;;;;;;8404471;28;20062;-70
2023/11/19 06:46:56;;;;;;;;;;;11.60;99.90;;;;;;8395088;28;20291;-71
2023/11/19 06:50:58;;;;;;;;;;;11.60;99.90;;;;;;8366001;28;20588;-71
2023/11/19 06:54:59;;;;;;;;;;;11.60;99.90;;;;;;8380829;28;19990;-71
2023/11/19 06:59:04;;;;;;;;;;;11.50;99.90;;;;;;8389194;28;19925;-71
2023/11/19 07:03:08;;;;;;;;;;;11.50;99.90;;;;;;8389630;28;19923;-71
2023/11/19 07:07:10;;;;;;;;;;;11.50;99.90;;;;;;8395166;28;20419;-70
2023/11/19 07:11:13;;;;;;;;;;;11.50;99.90;;;;;;8387189;28;19924;-71
2023/11/19 07:15:17;;;;;;;;;;;11.50;99.90;;;;;;8392976;28;19931;-71
2023/11/19 07:24:22;;;;;;;;;;;11.50;99.90;;;;;;8390159;28;19928;-71
2023/11/19 07:28:24;;;;;;;;;;;11.50;99.90;;;;;;8387661;28;19939;-70
2023/11/19 07:32:26;;;;;;;;;;;11.50;99.90;;;;;;8371982;28;19925;-70
2023/11/19 07:36:28;;;;;;;;;;;11.50;99.90;;;;;;8383251;28;19925;-71
2023/11/19 07:40:29;;;;;;;;;;;11.60;99.90;;;;;;8385113;28;19932;-71
2023/11/19 07:44:32;;;;;;;;;;;11.60;99.90;;;;;;8407396;28;19933;-70
2023/11/19 07:48:34;;;;;;;;;;;11.70;99.90;;;;;;8382290;28;20374;-70
2023/11/19 07:52:37;;;;;;;;;;;11.70;99.90;;;;;;8400417;28;19924;-71
2023/11/19 07:56:38;;;;;;;;;;;11.70;99.90;;;;;;8410477;28;19976;-71
2023/11/19 08:00:40;;;;;;;;;;;11.70;99.90;;;;;;8389679;28;19925;-71
2023/11/19 08:04:44;;;;;;;;;;;11.80;99.90;;;;;;8387721;28;19924;-71
2023/11/19 08:08:47;;;;;;;;;;;11.70;99.90;;;;;;8414453;28;19932;-71
2023/11/19 08:12:49;;;;;;;;;;;11.80;99.90;;;;;;8413959;28;20285;-71
2023/11/19 08:16:51;;;;;;;;;;;11.80;99.90;;;;;;8393844;28;19971;-71
2023/11/19 08:20:53;;;;;;;;;;;11.90;99.90;;;;;;8397624;28;19924;-71
2023/11/19 08:24:55;;;;;;;;;;;11.90;99.90;;;;;;8400607;28;19959;-71
2023/11/19 08:28:57;;;;;;;;;;;11.90;99.90;;;;;;8376045;28;19924;-71
2023/11/19 08:33:02;;;;;;;;;;;12.00;99.90;;;;;;8408829;28;19924;-71
2023/11/19 08:37:04;;;;;;;;;;;12.00;99.90;;;;;;8404392;28;20121;-71
2023/11/19 08:41:06;;;;;;;;;;;12.00;99.90;;;;;;8416825;28;19924;-71
2023/11/19 08:45:10;;;;;;;;;;;12.00;99.90;;;;;;8398092;28;19931;-70
2023/11/19 08:49:11;;;;;;;;;;;12.10;99.90;;;;;;8381100;28;19955;-71
2023/11/19 08:53:13;;;;;;;;;;;12.10;99.90;;;;;;8387813;28;19925;-71
2023/11/19 08:57:15;;;;;;;;;;;12.20;99.90;;;;;;8394201;28;20023;-71
2023/11/19 09:01:16;;;;;;;;;;;12.40;99.90;;;;;;8389241;28;19947;-70
2023/11/19 09:05:18;;;;;;;;;;;12.50;99.90;;;;;;8389243;28;20299;-70
2023/11/19 09:09:20;;;;;;;;;;;12.50;99.90;;;;;;8393060;28;19986;-71
2023/11/19 09:13:21;;;;;;;;;;;12.50;99.90;;;;;;8404814;28;19950;-70
2023/11/19 09:17:23;;;;;;;;;;;12.60;99.90;;;;;;8368048;28;20339;-70
2023/11/19 09:21:25;;;;;;;;;;;12.70;99.90;;;;;;8394140;28;19924;-70
2023/11/19 09:25:27;;;;;;;;;;;12.70;99.90;;;;;;8401389;28;19997;-71
2023/11/19 09:29:46;;;;;;;;;;;12.70;99.90;;;;;;8409915;28;20403;-71
2023/11/19 09:33:48;;;;;;;;;;;12.70;99.90;;;;;;8413618;28;20237;-71
2023/11/19 09:37:49;;;;;;;;;;;12.70;99.90;;;;;;8379330;28;19972;-71
2023/11/19 09:41:51;;;;;;;;;;;12.80;99.90;;;;;;8405741;28;19924;-70
2023/11/19 09:45:54;;;;;;;;;;;12.90;99.90;;;;;;8376490;28;19924;-71
2023/11/19 09:49:56;;;;;;;;;;;13.10;99.90;;;;;;8409030;28;19928;-70
2023/11/19 09:53:59;;;;;;;;;;;13.20;99.90;;;;;;8390934;28;19924;-70
2023/11/19 09:58:01;;;;;;;;;;;13.10;99.90;;;;;;8400344;28;19925;-70
2023/11/19 10:02:03;;;;;;;;;;;13.10;99.90;;;;;;8409753;28;19931;-70
2023/11/19 10:06:06;;;;;;;;;;;13.00;99.90;;;;;;8391710;28;20068;-70
2023/11/19 10:10:10;;;;;;;;;;;13.00;99.90;;;;;;8380308;28;20403;-70
2023/11/19 10:14:12;;;;;;;;;;;13.00;99.90;;;;;;8395653;28;19931;-70
2023/11/19 10:18:14;;;;;;;;;;;13.10;99.90;;;;;;8373824;28;19972;-71
2023/11/19 10:22:18;;;;;;;;;;;13.40;99.90;;;;;;8386144;28;19929;-70
2023/11/19 10:26:20;;;;;;;;;;;13.60;99.90;;;;;;8377593;28;19977;-71
2023/11/19 10:30:26;;;;;;;;;;;13.70;99.90;;;;;;8395961;28;19924;-71
2023/11/19 10:34:29;;;;;;;;;;;13.90;99.90;;;;;;8396066;28;19977;-70
2023/11/19 10:38:31;;;;;;;;;;;14.20;99.90;;;;;;8403184;28;19925;-71
2023/11/19 10:42:33;;;;;;;;;;;14.40;99.90;;;;;;8397811;28;19925;-71
2023/11/19 10:46:41;;;;;;;;;;;14.80;99.90;;;;;;8385153;28;19931;-71
2023/11/19 10:50:43;;;;;;;;;;;14.90;99.90;;;;;;8388743;28;19925;-70
2023/11/19 10:54:49;;;;;;;;;;;14.80;99.90;;;;;;8383356;28;19925;-70
2023/11/19 10:58:51;;;;;;;;;;;15.00;99.90;;;;;;8393477;28;20137;-71
2023/11/19 11:02:55;;;;;;;;;;;15.40;99.90;;;;;;8392852;28;20257;-70
2023/11/19 11:06:58;;;;;;;;;;;15.80;99.90;;;;;;8407363;28;19928;-70
2023/11/19 11:11:01;;;;;;;;;;;15.70;99.90;;;;;;8376441;28;19932;-71
2023/11/19 11:15:04;;;;;;;;;;;15.60;99.90;;;;;;8374190;28;20376;-71
2023/11/19 11:19:06;;;;;;;;;;;15.30;99.90;;;;;;8403984;28;20329;-70
2023/11/19 11:23:13;;;;;;;;;;;15.00;99.90;;;;;;8405145;28;20461;-71
2023/11/19 11:27:21;;;;;;;;;;;14.80;99.90;;;;;;8413325;28;19935;-70
2023/11/19 11:31:37;;;;;;;;;;;14.80;99.90;;;;;;8390982;28;20002;-71
2023/11/19 11:35:55;;;;;;;;;;;14.50;99.90;;;;;;8375538;28;19957;-70
2023/11/19 11:39:58;;;;;;;;;;;14.60;99.90;;;;;;8394340;28;20329;-71
2023/11/19 11:54:03;;;;;;;;;;;14.30;99.90;;;;;;8381317;28;19915;-70
2023/11/19 11:58:08;;;;;;;;;;;14.10;99.90;;;;;;8370109;28;19955;-70
2023/11/19 12:02:16;;;;;;;;;;;14.20;99.90;;;;;;8361508;28;19933;-70
2023/11/19 12:11:24;;;;;;;;;;;14.50;99.90;;;;;;8378803;28;19934;-71
2023/11/19 12:15:27;;;;;;;;;;;14.70;99.90;;;;;;8374237;28;19928;-70
2023/11/19 12:19:29;;;;;;;;;;;14.90;99.90;;;;;;8377785;28;19935;-70
2023/11/19 12:23:31;;;;;;;;;;;15.10;99.90;;;;;;8370934;28;19925;-70
2023/11/19 12:27:36;;;;;;;;;;;15.10;99.90;;;;;;8372744;28;20394;-70
2023/11/19 12:31:37;;;;;;;;;;;15.10;99.90;;;;;;8354970;28;19929;-70
2023/11/19 12:35:39;;;;;;;;;;;15.00;99.90;;;;;;8371500;28;19925;-70
2023/11/19 12:39:41;;;;;;;;;;;15.00;99.90;;;;;;8370782;28;19931;-70
2023/11/19 12:43:43;;;;;;;;;;;15.10;99.90;;;;;;8372227;28;19925;-70
2023/11/19 12:47:49;;;;;;;;;;;15.10;99.90;;;;;;8390838;28;19947;-70
2023/11/19 12:51:51;;;;;;;;;;;15.00;99.90;;;;;;8361429;28;19925;-71
2023/11/19 12:55:53;;;;;;;;;;;14.90;99.90;;;;;;8384046;28;19924;-71
2023/11/19 12:59:56;;;;;;;;;;;14.90;99.90;;;;;;8388260;28;19937;-70
2023/11/19 13:03:58;;;;;;;;;;;14.90;99.90;;;;;;8365147;28;19935;-70
2023/11/19 13:08:04;;;;;;;;;;;14.70;99.90;;;;;;8374739;28;19969;-71
2023/11/19 13:12:14;;;;;;;;;;;14.50;99.90;;;;;;8386417;28;20380;-70
2023/11/19 13:16:17;;;;;;;;;;;14.40;99.90;;;;;;8378398;28;19925;-70
2023/11/19 13:20:21;;;;;;;;;;;14.20;99.90;;;;;;8379748;28;19934;-71
2023/11/19 13:24:22;;;;;;;;;;;14.10;99.90;;;;;;8375796;28;20403;-70
2023/11/19 13:28:26;;;;;;;;;;;13.80;99.90;;;;;;8372011;28;20593;-70
2023/11/19 13:32:28;;;;;;;;;;;13.60;99.90;;;;;;8380140;28;20557;-70
2023/11/19 13:36:31;;;;;;;;;;;13.30;99.90;;;;;;8389485;28;19994;-70
2023/11/19 13:40:32;;;;;;;;;;;12.90;99.90;;;;;;8380232;28;19960;-71
2023/11/19 13:44:34;;;;;;;;;;;12.70;99.90;;;;;;8377395;28;19924;-71
2023/11/19 13:48:36;;;;;;;;;;;12.60;99.90;;;;;;8376312;28;19952;-71
2023/11/19 13:52:38;;;;;;;;;;;12.50;99.90;;;;;;8374514;28;20269;-71
2023/11/19 13:56:40;;;;;;;;;;;12.50;99.90;;;;;;8366353;28;20380;-72
2023/11/19 14:00:43;;;;;;;;;;;12.40;99.90;;;;;;8367180;28;19968;-71
2023/11/19 14:04:45;;;;;;;;;;;12.30;99.90;;;;;;8379884;28;20429;-71
2023/11/19 14:08:46;;;;;;;;;;;12.30;99.90;;;;;;8369701;28;20317;-71
2023/11/19 14:12:49;;;;;;;;;;;12.40;99.90;;;;;;8389590;28;20271;-71
2023/11/19 14:16:52;;;;;;;;;;;12.50;99.90;;;;;;8374768;28;19947;-71
2023/11/19 14:20:54;;;;;;;;;;;12.50;99.90;;;;;;8371409;28;20008;-71
2023/11/19 14:24:55;;;;;;;;;;;12.60;99.90;;;;;;8377206;28;20441;-71
2023/11/19 14:28:57;;;;;;;;;;;12.70;99.90;;;;;;8374554;28;19928;-71
2023/11/19 14:32:58;;;;;;;;;;;12.60;99.90;;;;;;8377195;28;19932;-71
2023/11/19 14:37:00;;;;;;;;;;;12.60;99.90;;;;;;8370750;28;19936;-71
2023/11/19 14:41:02;;;;;;;;;;;12.60;99.90;;;;;;8369954;28;19967;-70
2023/11/19 14:45:04;;;;;;;;;;;12.60;99.90;;;;;;8370675;28;19963;-71
2023/11/19 14:49:07;;;;;;;;;;;12.60;99.90;;;;;;8368217;28;19959;-70
2023/11/19 14:53:09;;;;;;;;;;;12.60;99.90;;;;;;8373945;28;20763;-71
2023/11/19 14:57:11;;;;;;;;;;;12.60;99.90;;;;;;8359421;28;19963;-71
2023/11/19 15:01:13;;;;;;;;;;;12.50;99.90;;;;;;8358010;28;19925;-70
2023/11/19 15:05:14;;;;;;;;;;;12.50;99.90;;;;;;8395061;28;19928;-71
2023/11/19 15:09:16;;;;;;;;;;;12.50;99.90;;;;;;8390787;28;20287;-71
2023/11/19 15:13:18;;;;;;;;;;;12.60;99.90;;;;;;8381293;28;19925;-70
2023/11/19 15:17:19;;;;;;;;;;;12.60;99.90;;;;;;8384756;28;19925;-71
2023/11/19 15:21:22;;;;;;;;;;;12.60;99.90;;;;;;8375433;28;19963;-71
2023/11/19 15:25:24;;;;;;;;;;;12.60;99.90;;;;;;8370731;28;19928;-71
2023/11/19 15:29:26;;;;;;;;;;;12.50;99.90;;;;;;8399617;28;20327;-71
2023/11/19 15:33:28;;;;;;;;;;;12.60;99.90;;;;;;8413253;28;20019;-71
2023/11/19 15:37:30;;;;;;;;;;;12.60;99.90;;;;;;8393401;28;19979;-70
2023/11/19 15:41:32;;;;;;;;;;;12.60;99.90;;;;;;8391686;28;19962;-71
2023/11/19 15:45:39;;;;;;;;;;;12.50;99.90;;;;;;8395104;28;19932;-71
2023/11/19 15:49:41;;;;;;;;;;;12.60;99.90;;;;;;8419040;28;19924;-70
2023/11/19 15:53:43;;;;;;;;;;;12.60;99.90;;;;;;8393243;28;20268;-71
2023/11/19 15:57:45;;;;;;;;;;;12.60;99.90;;;;;;8398941;28;20868;-72
2023/11/19 16:01:46;;;;;;;;;;;12.60;99.90;;;;;;8399311;28;19928;-71
2023/11/19 16:05:48;;;;;;;;;;;12.60;99.90;;;;;;8371745;28;19939;-70
2023/11/19 16:09:59;;;;;;;;;;;12.50;99.90;;;;;;8404633;28;20402;-71
2023/11/19 16:14:01;;;;;;;;;;;12.40;99.90;;;;;;8392341;28;20207;-71
2023/11/19 16:18:03;;;;;;;;;;;12.30;99.90;;;;;;8393510;28;19924;-71
2023/11/19 16:22:09;;;;;;;;;;;12.30;99.90;;;;;;8390969;28;19925;-71
2023/11/19 16:26:11;;;;;;;;;;;12.30;99.90;;;;;;8379679;28;20334;-71
2023/11/19 16:30:13;;;;;;;;;;;12.30;99.90;;;;;;8396175;28;19925;-71
2023/11/19 16:34:14;;;;;;;;;;;12.20;99.90;;;;;;8397570;28;19932;-71
2023/11/19 16:38:16;;;;;;;;;;;12.10;99.90;;;;;;8386338;28;19933;-71
2023/11/19 16:42:20;;;;;;;;;;;11.90;99.90;;;;;;8363636;28;24166;-70
2023/11/19 16:46:22;;;;;;;;;;;11.80;99.90;;;;;;8348622;28;20303;-71
2023/11/19 16:50:26;;;;;;;;;;;11.80;99.90;;;;;;8353241;28;21051;-70
2023/11/19 16:54:28;;;;;;;;;;;11.70;99.90;;;;;;8354931;28;19932;-71
2023/11/19 16:58:31;;;;;;;;;;;11.70;99.90;;;;;;8354804;28;19934;-70
2023/11/19 17:02:33;;;;;;;;;;;11.70;99.90;;;;;;8357989;28;19925;-71
2023/11/19 17:06:51;;;;;;;;;;;11.70;99.90;;;;;;8358270;28;19946;-71
2023/11/19 17:10:54;;;;;;;;;;;11.60;99.90;;;;;;8355085;28;19932;-71
2023/11/19 17:15:03;;;;;;;;;;;11.60;99.90;;;;;;8341232;28;19994;-71
2023/11/19 17:19:05;;;;;;;;;;;11.60;99.90;;;;;;8360176;28;19925;-71
2023/11/19 17:23:08;;;;;;;;;;;11.60;99.90;;;;;;8356289;28;19932;-71
2023/11/19 17:27:10;;;;;;;;;;;11.60;99.90;;;;;;8358339;28;19939;-71
2023/11/19 17:31:14;;;;;;;;;;;11.60;99.90;;;;;;8352605;28;19924;-71
2023/11/19 17:35:15;;;;;;;;;;;11.60;99.90;;;;;;8358970;28;20285;-71
2023/11/19 17:39:17;;;;;;;;;;;11.60;99.90;;;;;;8370141;28;20334;-72
2023/11/19 17:43:19;;;;;;;;;;;11.60;99.90;;;;;;8354706;28;19932;-72
2023/11/19 17:47:20;;;;;;;;;;;11.60;99.90;;;;;;8371844;28;19928;-72
2023/11/19 17:51:22;;;;;;;;;;;11.60;99.90;;;;;;8359695;28;20036;-71
2023/11/19 17:55:24;;;;;;;;;;;11.50;99.90;;;;;;8364484;28;19929;-71
2023/11/19 17:59:25;;;;;;;;;;;11.50;99.90;;;;;;8365110;28;19981;-72
2023/11/19 18:03:27;;;;;;;;;;;11.50;99.90;;;;;;8338594;28;19933;-72
2023/11/19 18:07:29;;;;;;;;;;;11.50;99.90;;;;;;8351356;28;19947;-72
2023/11/19 18:11:36;;;;;;;;;;;11.50;99.90;;;;;;8371480;28;20403;-72
2023/11/19 18:15:38;;;;;;;;;;;11.50;99.90;;;;;;8351307;28;19957;-72
2023/11/19 18:19:39;;;;;;;;;;;11.50;99.90;;;;;;8358539;28;19932;-72
2023/11/19 18:23:41;;;;;;;;;;;11.50;99.90;;;;;;8357415;28;20536;-72
2023/11/19 18:27:43;;;;;;;;;;;11.50;99.90;;;;;;8349231;28;19928;-72
2023/11/19 18:31:44;;;;;;;;;;;11.50;99.90;;;;;;8356244;28;20726;-72
2023/11/19 18:35:46;;;;;;;;;;;11.50;99.90;;;;;;8358059;28;19931;-72
2023/11/19 18:39:48;;;;;;;;;;;11.50;99.90;;;;;;8360587;28;20229;-72
2023/11/19 18:43:50;;;;;;;;;;;11.50;99.90;;;;;;8358283;28;19979;-72
2023/11/19 18:47:51;;;;;;;;;;;11.50;99.90;;;;;;8342135;28;19924;-72
2023/11/19 18:51:53;;;;;;;;;;;11.50;99.90;;;;;;8355178;28;19977;-72
2023/11/19 18:55:55;;;;;;;;;;;11.50;99.90;;;;;;8375491;28;19925;-72
2023/11/19 18:59:56;;;;;;;;;;;11.50;99.90;;;;;;8360021;28;19928;-72
2023/11/19 19:03:59;;;;;;;;;;;11.50;99.90;;;;;;8357550;28;19925;-72
2023/11/19 19:08:01;;;;;;;;;;;11.50;99.90;;;;;;8338798;28;19933;-72
2023/11/19 19:12:03;;;;;;;;;;;11.50;99.90;;;;;;8355851;28;20027;-72
2023/11/19 19:16:05;;;;;;;;;;;11.50;99.90;;;;;;8360319;28;19952;-72
2023/11/19 19:20:07;;;;;;;;;;;11.50;99.90;;;;;;8359001;28;20019;-72
2023/11/19 19:24:09;;;;;;;;;;;11.50;99.90;;;;;;8354167;28;19929;-71
2023/11/19 19:28:11;;;;;;;;;;;11.50;99.90;;;;;;8331477;28;19924;-71
2023/11/19 19:32:16;;;;;;;;;;;11.50;99.90;;;;;;8353777;28;19932;-71
2023/11/19 19:36:17;;;;;;;;;;;11.50;99.90;;;;;;8352875;28;19925;-71
2023/11/19 19:40:19;;;;;;;;;;;11.50;99.90;;;;;;8360760;28;19927;-71
2023/11/19 19:44:25;;;;;;;;;;;11.50;99.90;;;;;;8364220;28;19929;-71
2023/11/19 19:48:27;;;;;;;;;;;11.50;99.90;;;;;;8358833;28;19925;-71
2023/11/19 19:52:31;;;;;;;;;;;11.50;99.90;;;;;;8364483;28;19931;-71
2023/11/19 19:56:36;;;;;;;;;;;11.50;99.90;;;;;;8358345;28;19924;-71
2023/11/19 20:00:38;;;;;;;;;;;11.50;99.90;;;;;;8360675;28;19937;-71
2023/11/19 20:04:40;;;;;;;;;;;11.60;99.90;;;;;;8356029;28;19952;-71
2023/11/19 20:08:45;;;;;;;;;;;11.60;99.90;;;;;;8341000;28;20008;-71
2023/11/19 20:12:47;;;;;;;;;;;11.60;99.90;;;;;;8360182;28;20032;-71
2023/11/19 20:16:50;;;;;;;;;;;11.60;99.90;;;;;;8358869;28;19925;-71
2023/11/19 20:21:11;;;;;;;;;;;11.60;99.90;;;;;;8362161;28;19931;-71
2023/11/19 20:25:13;;;;;;;;;;;11.60;99.90;;;;;;8359408;28;20379;-72
2023/11/19 20:29:15;;;;;;;;;;;11.70;99.90;;;;;;8340813;28;19928;-71
2023/11/19 20:33:17;;;;;;;;;;;11.70;99.90;;;;;;8360689;28;19926;-72
2023/11/19 20:37:19;;;;;;;;;;;11.70;99.90;;;;;;8359296;28;20371;-71
2023/11/19 20:41:21;;;;;;;;;;;11.80;99.90;;;;;;8364037;28;19928;-71
2023/11/19 20:45:26;;;;;;;;;;;11.80;99.90;;;;;;8362743;28;19932;-71
2023/11/19 20:49:29;;;;;;;;;;;11.80;99.90;;;;;;8337371;28;20026;-72
2023/11/19 20:53:31;;;;;;;;;;;11.80;99.90;;;;;;8367808;28;19924;-71
2023/11/19 20:57:32;;;;;;;;;;;11.80;99.90;;;;;;8375715;28;19932;-72
2023/11/19 21:01:35;;;;;;;;;;;11.80;99.90;;;;;;8379757;28;20011;-72
2023/11/19 21:05:38;;;;;;;;;;;11.80;99.90;;;;;;8377049;28;20009;-73
2023/11/19 21:09:39;;;;;;;;;;;11.90;99.90;;;;;;8369727;28;20352;-71
2023/11/19 21:13:41;;;;;;;;;;;11.90;99.90;;;;;;8360676;28;19924;-71
2023/11/19 21:17:43;;;;;;;;;;;11.90;99.90;;;;;;8365276;28;20986;-71
2023/11/19 21:21:44;;;;;;;;;;;11.90;99.90;;;;;;8352526;28;19929;-71
2023/11/19 21:25:46;;;;;;;;;;;11.90;99.90;;;;;;8348998;28;19924;-71
2023/11/19 21:29:48;;;;;;;;;;;11.90;99.90;;;;;;8354329;28;19925;-71
2023/11/19 21:33:50;;;;;;;;;;;12.00;99.90;;;;;;8343733;28;19932;-71
2023/11/19 21:37:51;;;;;;;;;;;12.00;99.90;;;;;;8357361;28;19929;-71
2023/11/19 21:41:54;;;;;;;;;;;12.00;99.90;;;;;;8357751;28;19925;-71
2023/11/19 21:45:56;;;;;;;;;;;12.10;99.90;;;;;;8352184;28;19982;-71
2023/11/19 21:50:00;;;;;;;;;;;12.10;99.90;;;;;;8356785;28;19932;-72
2023/11/19 21:54:02;;;;;;;;;;;12.10;99.90;;;;;;8360491;28;20023;-72
2023/11/19 21:58:04;;;;;;;;;;;12.10;99.90;;;;;;8353569;28;19979;-71
2023/11/19 22:02:06;;;;;;;;;;;12.20;99.90;;;;;;8367920;28;19925;-71
2023/11/19 22:06:09;;;;;;;;;;;12.20;99.90;;;;;;8399370;28;19928;-71
2023/11/19 22:10:13;;;;;;;;;;;12.10;99.90;;;;;;8389134;28;19925;-72
2023/11/19 22:14:14;;;;;;;;;;;12.10;99.90;;;;;;8406346;28;19968;-71
2023/11/19 22:18:16;;;;;;;;;;;12.10;99.90;;;;;;8393155;28;19929;-72
2023/11/19 22:22:18;;;;;;;;;;;12.00;99.90;;;;;;8382760;28;19924;-71
2023/11/19 22:26:21;;;;;;;;;;;12.00;99.90;;;;;;8401404;28;20413;-71
2023/11/19 22:30:23;;;;;;;;;;;12.00;99.90;;;;;;8389421;28;19977;-72
2023/11/19 22:34:25;;;;;;;;;;;12.00;99.90;;;;;;8383722;28;19932;-71
2023/11/19 22:38:26;;;;;;;;;;;12.00;99.90;;;;;;8405141;28;20360;-71
2023/11/19 22:42:28;;;;;;;;;;;11.90;99.90;;;;;;8406869;28;19931;-71
2023/11/19 22:46:30;;;;;;;;;;;11.90;99.90;;;;;;8407680;28;19924;-71
2023/11/19 22:50:32;;;;;;;;;;;11.90;99.90;;;;;;8408418;28;20273;-71
2023/11/19 22:54:33;;;;;;;;;;;11.90;99.90;;;;;;8393676;28;19928;-71
2023/11/19 22:58:35;;;;;;;;;;;11.80;99.90;;;;;;8413409;28;20391;-71
2023/11/19 23:02:37;;;;;;;;;;;11.80;99.90;;;;;;8379358;28;20415;-71
2023/11/19 23:06:38;;;;;;;;;;;11.80;99.90;;;;;;8375531;28;19928;-71
2023/11/19 23:10:40;;;;;;;;;;;11.80;99.90;;;;;;8399675;28;19967;-71
2023/11/19 23:14:42;;;;;;;;;;;11.80;99.90;;;;;;8385715;28;19925;-71
2023/11/19 23:18:44;;;;;;;;;;;11.80;99.90;;;;;;8397686;28;19981;-71
2023/11/19 23:22:46;;;;;;;;;;;11.80;99.90;;;;;;8415584;28;19932;-71
2023/11/19 23:26:48;;;;;;;;;;;11.80;99.90;;;;;;8413149;28;19925;-71
2023/11/19 23:30:49;;;;;;;;;;;11.80;99.90;;;;;;8396003;28;19924;-71
2023/11/19 23:34:51;;;;;;;;;;;11.70;99.90;;;;;;8411086;28;20386;-71
2023/11/19 23:38:53;;;;;;;;;;;11.80;99.90;;;;;;8414493;28;19924;-70
2023/11/19 23:42:55;;;;;;;;;;;11.70;99.90;;;;;;8414697;28;19928;-71
2023/11/19 23:46:56;;;;;;;;;;;11.80;99.90;;;;;;8395093;28;20157;-70
2023/11/19 23:50:58;;;;;;;;;;;11.70;99.90;;;;;;8405344;28;19928;-71
2023/11/19 23:55:00;;;;;;;;;;;11.70;99.90;;;;;;8408130;28;20283;-70
2023/11/19 23:59:02;;;;;;;;;;;11.70;99.90;;;;;;8406752;28;19925;-71
